createdAt,value
2022-10-07T00:01:12.158Z,6.40
2022-10-07T00:03:41.606Z,6.47
2022-10-07T00:06:13.417Z,6.18
2022-10-07T00:08:44.956Z,6.35
2022-10-07T00:11:15.441Z,6.95
2022-10-07T00:13:44.738Z,6.88
2022-10-07T00:16:15.147Z,7.13
2022-10-07T00:18:44.284Z,7.25
2022-10-07T00:21:14.198Z,7.13
2022-10-07T00:23:45.878Z,6.85
2022-10-07T00:26:15.830Z,7.05
2022-10-07T00:28:44.343Z,6.60
2022-10-07T00:31:16.105Z,6.22
2022-10-07T00:33:44.830Z,7.05
2022-10-07T00:36:15.809Z,6.40
2022-10-07T00:38:45.640Z,7.32
2022-10-07T00:41:19.703Z,7.32
2022-10-07T00:43:48.434Z,7.45
2022-10-07T00:46:26.627Z,7.55
2022-10-07T00:48:55.774Z,8.02
2022-10-07T00:51:24.272Z,6.88
2022-10-07T00:53:55.856Z,6.40
2022-10-07T00:56:27.145Z,6.47
2022-10-07T00:58:55.516Z,6.68
2022-10-07T01:01:24.289Z,6.00
2022-10-07T01:03:52.488Z,6.20
2022-10-07T01:06:21.280Z,6.65
2022-10-07T01:08:52.887Z,6.45
2022-10-07T01:11:35.183Z,6.20
2022-10-07T01:14:10.414Z,6.38
2022-10-07T01:16:49.691Z,6.22
2022-10-07T01:19:36.450Z,6.30
2022-10-07T01:22:20.939Z,6.07
2022-10-07T01:25:03.591Z,6.22
2022-10-07T01:27:35.824Z,6.25
2022-10-07T01:30:08.027Z,6.80
2022-10-07T01:32:40.525Z,7.28
2022-10-07T01:35:12.874Z,6.70
2022-10-07T01:37:46.393Z,7.05
2022-10-07T01:40:18.450Z,6.80
2022-10-07T01:42:49.813Z,8.23
2022-10-07T01:45:21.667Z,7.35
2022-10-07T01:47:50.645Z,7.22
2022-10-07T01:50:21.909Z,6.88
2022-10-07T01:53:15.576Z,7.07
2022-10-07T01:55:51.745Z,7.05
2022-10-07T01:58:36.981Z,7.72
2022-10-07T02:01:13.231Z,7.00
2022-10-07T02:03:55.979Z,7.07
2022-10-07T02:06:35.693Z,6.70
2022-10-07T02:09:11.953Z,7.68
2022-10-07T02:11:43.961Z,7.85
2022-10-07T02:14:17.701Z,7.70
2022-10-07T02:19:19.188Z,7.80
2022-10-07T02:21:50.790Z,8.23
2022-10-07T02:24:21.077Z,8.77
2022-10-07T02:26:52.348Z,7.82
2022-10-07T02:29:25.025Z,8.77
2022-10-07T02:31:55.052Z,8.65
2022-10-07T02:34:25.786Z,7.88
2022-10-07T02:36:58.727Z,8.25
2022-10-07T02:39:27.434Z,8.30
2022-10-07T02:42:01.091Z,8.95
2022-10-07T02:47:07.349Z,8.85
2022-10-07T02:49:40.138Z,7.65
2022-10-07T02:52:11.721Z,7.93
2022-10-07T02:54:44.545Z,8.20
2022-10-07T02:57:16.726Z,7.97
2022-10-07T02:59:49.826Z,7.60
2022-10-07T03:02:22.003Z,7.30
2022-10-07T03:04:50.575Z,7.05
2022-10-07T03:07:18.906Z,7.35
2022-10-07T03:09:47.188Z,6.10
2022-10-07T03:12:15.888Z,6.72
2022-10-07T03:14:45.996Z,6.85
2022-10-07T03:17:14.091Z,6.88
2022-10-07T03:19:43.284Z,6.28
2022-10-07T03:22:11.367Z,6.25
2022-10-07T03:24:40.473Z,6.22
2022-10-07T03:27:09.363Z,6.65
2022-10-07T03:29:37.513Z,6.95
2022-10-07T03:32:07.055Z,6.85
2022-10-07T03:34:35.565Z,7.30
2022-10-07T03:37:04.411Z,6.43
2022-10-07T03:39:32.664Z,6.43
2022-10-07T03:42:01.084Z,6.15
2022-10-07T03:44:29.261Z,6.55
2022-10-07T03:46:58.878Z,6.13
2022-10-07T03:49:28.895Z,5.85
2022-10-07T03:51:57.006Z,5.57
2022-10-07T03:54:25.153Z,5.53
2022-10-07T03:56:53.752Z,4.63
2022-10-07T03:59:22.089Z,4.97
2022-10-07T04:01:50.253Z,4.75
2022-10-07T04:04:18.939Z,5.30
2022-10-07T04:06:48.376Z,4.97
2022-10-07T04:09:17.074Z,5.43
2022-10-07T04:11:45.529Z,5.35
2022-10-07T04:14:13.807Z,5.35
2022-10-07T04:16:42.565Z,5.95
2022-10-07T04:19:10.811Z,5.00
2022-10-07T04:21:39.159Z,5.15
2022-10-07T04:24:08.706Z,5.22
2022-10-07T04:26:37.137Z,5.13
2022-10-07T04:29:05.421Z,4.65
2022-10-07T04:31:33.763Z,5.35
2022-10-07T04:34:02.379Z,5.93
2022-10-07T04:36:30.608Z,5.15
2022-10-07T04:38:58.715Z,5.35
2022-10-07T04:41:28.409Z,5.32
2022-10-07T04:43:58.104Z,6.15
2022-10-07T04:46:28.499Z,5.25
2022-10-07T04:48:57.310Z,5.10
2022-10-07T04:51:25.386Z,5.22
2022-10-07T04:53:56.880Z,5.68
2022-10-07T04:56:25.534Z,5.40
2022-10-07T04:58:55.999Z,4.80
2022-10-07T05:01:24.549Z,5.15
2022-10-07T05:03:52.907Z,5.00
2022-10-07T05:06:21.034Z,4.75
2022-10-07T05:08:49.917Z,4.90
2022-10-07T05:11:18.445Z,4.43
2022-10-07T05:13:46.539Z,4.95
2022-10-07T05:16:16.091Z,5.20
2022-10-07T05:18:44.868Z,4.95
2022-10-07T05:21:12.908Z,4.95
2022-10-07T05:23:41.420Z,4.75
2022-10-07T05:26:11.341Z,4.25
2022-10-07T05:28:40.303Z,3.97
2022-10-07T05:31:10.873Z,4.70
2022-10-07T05:33:41.076Z,4.40
2022-10-07T05:36:11.497Z,4.72
2022-10-07T05:38:40.027Z,4.57
2022-10-07T05:41:11.343Z,4.60
2022-10-07T05:43:42.301Z,4.47
2022-10-07T05:46:13.791Z,4.30
2022-10-07T05:48:47.207Z,4.25
2022-10-07T05:51:16.048Z,4.72
2022-10-07T05:53:44.881Z,4.60
2022-10-07T05:56:17.821Z,3.95
2022-10-07T05:58:46.149Z,4.22
2022-10-07T06:01:16.606Z,5.10
2022-10-07T06:03:51.624Z,4.50
2022-10-07T06:06:20.277Z,3.97
2022-10-07T06:08:49.099Z,4.38
2022-10-07T06:11:36.196Z,4.72
2022-10-07T06:14:06.208Z,3.88
2022-10-07T06:16:34.466Z,4.38
2022-10-07T06:19:04.378Z,3.95
2022-10-07T06:21:32.733Z,4.60
2022-10-07T06:24:00.851Z,4.50
2022-10-07T06:26:29.166Z,4.63
2022-10-07T06:28:57.542Z,5.00
2022-10-07T06:31:26.022Z,4.22
2022-10-07T06:33:54.794Z,4.78
2022-10-07T06:36:24.539Z,4.35
2022-10-07T06:38:54.912Z,4.75
2022-10-07T06:41:23.774Z,4.40
2022-10-07T06:43:56.986Z,5.30
2022-10-07T06:46:25.411Z,4.10
2022-10-07T06:48:54.176Z,4.03
2022-10-07T06:51:24.189Z,5.78
2022-10-07T06:53:55.343Z,4.70
2022-10-07T06:56:23.614Z,4.90
2022-10-07T06:58:51.859Z,4.78
2022-10-07T07:01:20.644Z,5.00
2022-10-07T07:03:49.127Z,4.50
2022-10-07T07:06:17.232Z,4.85
2022-10-07T07:08:50.307Z,4.75
2022-10-07T07:11:38.018Z,4.50
2022-10-07T07:14:07.921Z,4.85
2022-10-07T07:16:36.954Z,4.40
2022-10-07T07:19:08.874Z,4.50
2022-10-07T07:21:38.276Z,3.90
2022-10-07T07:24:08.488Z,4.10
2022-10-07T07:26:37.951Z,4.07
2022-10-07T07:29:07.779Z,3.35
2022-10-07T07:31:37.539Z,3.63
2022-10-07T07:34:08.926Z,3.58
2022-10-07T07:36:37.372Z,3.78
2022-10-07T07:39:09.955Z,3.08
2022-10-07T07:41:40.687Z,3.20
2022-10-07T07:44:11.785Z,3.35
2022-10-07T07:46:42.241Z,3.10
2022-10-07T07:49:12.114Z,3.40
2022-10-07T07:51:42.483Z,3.45
2022-10-07T07:54:12.865Z,3.25
2022-10-07T07:56:41.426Z,3.78
2022-10-07T07:59:10.010Z,3.60
2022-10-07T08:01:39.232Z,3.30
2022-10-07T08:04:08.197Z,3.65
2022-10-07T08:06:37.670Z,3.42
2022-10-07T08:09:06.076Z,3.53
2022-10-07T08:11:35.947Z,3.75
2022-10-07T08:14:04.429Z,3.25
2022-10-07T08:16:32.823Z,3.83
2022-10-07T08:19:00.969Z,3.55
2022-10-07T08:21:32.877Z,3.80
2022-10-07T08:24:02.888Z,3.10
2022-10-07T08:26:32.888Z,3.47
2022-10-07T08:29:02.843Z,3.10
2022-10-07T08:31:31.640Z,4.05
2022-10-07T08:34:01.578Z,3.35
2022-10-07T08:36:33.022Z,3.60
2022-10-07T08:39:02.377Z,3.42
2022-10-07T08:41:43.668Z,3.33
2022-10-07T08:44:24.992Z,3.67
2022-10-07T08:46:59.995Z,3.30
2022-10-07T08:49:36.642Z,3.55
2022-10-07T08:52:25.453Z,2.97
2022-10-07T08:54:54.454Z,3.30
2022-10-07T08:57:33.984Z,2.85
2022-10-07T09:00:07.138Z,3.90
2022-10-07T09:02:46.448Z,3.17
2022-10-07T09:05:21.630Z,2.95
2022-10-07T09:07:53.617Z,3.00
2022-10-07T09:10:33.598Z,3.13
2022-10-07T09:13:05.865Z,2.70
2022-10-07T09:15:44.768Z,2.95
2022-10-07T09:18:20.732Z,2.97
2022-10-07T09:20:53.299Z,3.38
2022-10-07T09:23:25.091Z,2.78
2022-10-07T09:25:53.416Z,3.00
2022-10-07T09:28:25.456Z,2.85
2022-10-07T09:30:55.479Z,2.40
2022-10-07T09:33:25.706Z,2.60
2022-10-07T09:35:57.592Z,3.28
2022-10-07T09:38:36.064Z,2.63
2022-10-07T09:41:16.709Z,3.08
2022-10-07T09:43:58.555Z,2.78
2022-10-07T09:46:40.839Z,2.70
2022-10-07T09:49:27.497Z,3.00
2022-10-07T09:52:00.700Z,2.70
2022-10-07T09:54:30.347Z,3.10
2022-10-07T09:57:00.441Z,2.72
2022-10-07T09:59:30.786Z,2.95
2022-10-07T10:02:02.989Z,2.80
2022-10-07T10:04:35.545Z,2.78
2022-10-07T10:07:06.995Z,3.37
2022-10-07T10:09:36.093Z,2.90
2022-10-07T10:12:13.395Z,2.55
2022-10-07T10:14:50.592Z,3.10
2022-10-07T10:17:27.682Z,2.60
2022-10-07T10:19:56.145Z,3.05
2022-10-07T10:22:27.135Z,2.78
2022-10-07T10:25:13.814Z,2.72
2022-10-07T10:27:52.163Z,2.97
2022-10-07T10:30:23.776Z,3.20
2022-10-07T10:33:20.712Z,2.88
2022-10-07T10:35:57.912Z,2.88
2022-10-07T10:38:34.378Z,2.90
2022-10-07T10:41:10.591Z,2.60
2022-10-07T10:43:52.855Z,2.90
2022-10-07T10:46:30.463Z,2.65
2022-10-07T10:49:11.835Z,3.00
2022-10-07T10:51:51.167Z,3.13
2022-10-07T10:54:29.018Z,2.90
2022-10-07T10:57:03.601Z,2.58
2022-10-07T10:59:50.308Z,2.63
2022-10-07T11:02:34.702Z,2.40
2022-10-07T11:05:10.024Z,2.45
2022-10-07T11:07:45.451Z,2.38
2022-10-07T11:10:20.505Z,2.42
2022-10-07T11:12:56.687Z,2.40
2022-10-07T11:15:29.904Z,2.80
2022-10-07T11:18:02.658Z,2.20
2022-10-07T11:20:37.324Z,2.38
2022-10-07T11:23:17.706Z,2.40
2022-10-07T11:25:53.974Z,2.25
2022-10-07T11:28:25.643Z,2.20
2022-10-07T11:30:59.289Z,2.50
2022-10-07T11:33:33.998Z,2.50
2022-10-07T11:36:14.288Z,2.55
2022-10-07T11:38:44.222Z,2.50
2022-10-07T11:41:19.949Z,2.70
2022-10-07T11:43:50.788Z,2.15
2022-10-07T11:46:23.833Z,2.47
2022-10-07T11:49:01.050Z,2.00
2022-10-07T11:51:35.258Z,2.05
2022-10-07T11:54:06.853Z,2.25
2022-10-07T11:56:39.572Z,2.35
2022-10-07T11:59:08.883Z,2.45
2022-10-07T12:01:51.483Z,2.40
2022-10-07T12:04:47.975Z,1.98
2022-10-07T12:07:58.157Z,2.08
2022-10-07T12:10:29.689Z,2.30
2022-10-07T12:13:00.530Z,2.00
2022-10-07T12:15:34.828Z,2.00
2022-10-07T12:18:27.697Z,2.60
2022-10-07T12:21:02.410Z,2.05
2022-10-07T12:23:43.181Z,2.17
2022-10-07T12:26:43.965Z,2.20
2022-10-07T12:29:38.012Z,1.85
2022-10-07T12:32:26.219Z,1.98
2022-10-07T12:34:55.712Z,2.08
2022-10-07T12:37:50.249Z,1.90
2022-10-07T12:40:25.917Z,1.90
2022-10-07T12:42:59.829Z,2.30
2022-10-07T12:45:31.085Z,1.75
2022-10-07T12:48:02.082Z,2.05
2022-10-07T12:50:31.858Z,2.00
2022-10-07T12:53:04.135Z,1.98
2022-10-07T12:55:38.164Z,1.73
2022-10-07T12:58:33.498Z,2.10
2022-10-07T13:01:15.982Z,1.88
2022-10-07T13:04:29.187Z,1.88
2022-10-07T13:07:31.075Z,2.28
2022-10-07T13:10:26.050Z,2.08
2022-10-07T13:13:00.167Z,2.10
2022-10-07T13:15:35.396Z,2.05
2022-10-07T13:18:13.357Z,2.00
2022-10-07T13:21:06.894Z,1.90
2022-10-07T13:23:35.659Z,2.30
2022-10-07T13:26:04.593Z,2.60
2022-10-07T13:28:39.970Z,2.00
2022-10-07T13:31:17.906Z,1.80
2022-10-07T13:33:46.709Z,2.20
2022-10-07T13:36:17.636Z,2.10
2022-10-07T13:38:47.354Z,2.03
2022-10-07T13:41:24.744Z,2.30
2022-10-07T13:43:57.503Z,2.00
2022-10-07T13:46:28.630Z,1.92
2022-10-07T13:48:58.354Z,1.90
2022-10-07T13:51:31.169Z,1.80
2022-10-07T13:54:01.010Z,2.28
2022-10-07T13:56:33.638Z,1.63
2022-10-07T13:59:06.975Z,2.10
2022-10-07T14:01:40.030Z,1.83
2022-10-07T14:04:20.026Z,1.90
2022-10-07T14:06:56.095Z,2.30
2022-10-07T14:09:34.739Z,2.10
2022-10-07T14:12:06.094Z,1.95
2022-10-07T14:14:39.071Z,2.15
2022-10-07T14:17:18.253Z,2.00
2022-10-07T14:19:53.055Z,1.80
2022-10-07T14:22:29.242Z,2.10
2022-10-07T14:25:00.799Z,1.75
2022-10-07T14:27:54.826Z,1.90
2022-10-07T14:33:30.166Z,2.30
2022-10-07T14:36:14.292Z,2.38
2022-10-07T14:38:43.833Z,1.58
2022-10-07T14:41:12.808Z,2.10
2022-10-07T14:43:44.799Z,1.92
2022-10-07T14:46:18.842Z,1.90
2022-10-07T14:48:48.501Z,2.00
2022-10-07T14:51:18.877Z,2.15
2022-10-07T14:53:51.349Z,2.10
2022-10-07T14:56:25.293Z,1.95
2022-10-07T14:58:54.218Z,1.88
2022-10-07T15:01:23.960Z,2.00
2022-10-07T15:03:52.878Z,2.13
2022-10-07T15:06:22.066Z,2.40
2022-10-07T15:08:51.161Z,2.63
2022-10-07T15:11:24.032Z,2.00
2022-10-07T15:13:52.750Z,2.20
2022-10-07T15:16:25.005Z,1.83
2022-10-07T15:18:54.181Z,2.05
2022-10-07T15:21:23.213Z,2.53
2022-10-07T15:23:53.306Z,1.70
2022-10-07T15:26:24.276Z,2.35
2022-10-07T15:28:55.383Z,2.25
2022-10-07T15:31:27.129Z,2.30
2022-10-07T15:33:57.991Z,1.90
2022-10-07T15:36:28.702Z,2.30
2022-10-07T15:38:59.780Z,2.53
2022-10-07T15:41:34.010Z,2.05
2022-10-07T15:44:04.551Z,2.30
2022-10-07T15:46:34.370Z,2.15
2022-10-07T15:49:03.582Z,2.30
2022-10-07T15:51:31.867Z,1.90
2022-10-07T15:54:00.732Z,2.53
2022-10-07T15:56:28.918Z,2.50
2022-10-07T15:58:58.763Z,2.45
2022-10-07T16:01:28.337Z,2.17
2022-10-07T16:03:58.626Z,2.33
2022-10-07T16:06:31.595Z,2.30
2022-10-07T16:09:00.838Z,2.47
2022-10-07T16:11:31.345Z,2.10
2022-10-07T16:14:02.269Z,2.47
2022-10-07T16:16:32.509Z,2.28
2022-10-07T16:19:02.505Z,1.92
2022-10-07T16:21:32.882Z,2.40
2022-10-07T16:24:03.925Z,2.17
2022-10-07T16:26:33.969Z,2.20
2022-10-07T16:29:20.559Z,2.20
2022-10-07T16:31:52.519Z,2.17
2022-10-07T16:34:26.002Z,2.30
2022-10-07T16:36:54.200Z,2.17
2022-10-07T16:39:22.843Z,2.90
2022-10-07T16:41:52.446Z,2.50
2022-10-07T16:44:21.656Z,2.58
2022-10-07T16:46:50.328Z,2.85
2022-10-07T16:49:19.358Z,2.72
2022-10-07T16:51:49.093Z,2.58
2022-10-07T16:54:19.506Z,2.83
2022-10-07T16:56:49.990Z,2.85
2022-10-07T16:59:23.641Z,3.30
2022-10-07T17:01:54.700Z,2.58
2022-10-07T17:04:23.512Z,3.17
2022-10-07T17:06:53.600Z,2.92
2022-10-07T17:09:24.839Z,3.10
2022-10-07T17:11:53.138Z,2.83
2022-10-07T17:14:22.928Z,2.75
2022-10-07T17:16:54.149Z,2.90
2022-10-07T17:19:23.748Z,2.83
2022-10-07T17:21:54.849Z,2.78
2022-10-07T17:24:24.618Z,3.00
2022-10-07T17:26:53.593Z,3.03
2022-10-07T17:29:24.292Z,3.22
2022-10-07T17:31:52.695Z,3.22
2022-10-07T17:34:22.221Z,4.00
2022-10-07T17:36:52.337Z,3.67
2022-10-07T17:39:20.834Z,4.15
2022-10-07T17:41:49.376Z,5.65
2022-10-07T17:44:17.791Z,3.42
2022-10-07T17:46:49.086Z,3.80
2022-10-07T17:49:17.459Z,2.88
2022-10-07T17:51:45.638Z,3.40
2022-10-07T17:54:15.594Z,3.05
2022-10-07T17:56:44.562Z,2.78
2022-10-07T17:59:12.835Z,4.85
2022-10-07T18:01:41.761Z,3.60
2022-10-07T18:04:14.818Z,3.85
2022-10-07T18:06:44.013Z,3.75
2022-10-07T18:09:18.585Z,3.45
2022-10-07T18:12:05.221Z,3.30
2022-10-07T18:14:53.711Z,3.33
2022-10-07T18:17:24.780Z,3.30
2022-10-07T18:19:53.188Z,3.55
2022-10-07T18:22:21.390Z,3.45
2022-10-07T18:24:52.325Z,4.25
2022-10-07T18:27:26.912Z,3.47
2022-10-07T18:29:56.039Z,2.65
2022-10-07T18:32:25.002Z,3.50
2022-10-07T18:34:53.156Z,3.22
2022-10-07T18:37:23.041Z,4.05
2022-10-07T18:39:52.628Z,3.17
2022-10-07T18:42:21.211Z,3.72
2022-10-07T18:44:50.622Z,3.10
2022-10-07T18:47:18.819Z,3.63
2022-10-07T18:49:47.226Z,3.35
2022-10-07T18:52:15.638Z,3.45
2022-10-07T18:54:43.806Z,3.22
2022-10-07T18:57:13.406Z,3.38
2022-10-07T18:59:41.773Z,3.45
2022-10-07T19:02:12.486Z,3.83
2022-10-07T19:04:40.903Z,4.00
2022-10-07T19:07:09.202Z,4.57
2022-10-07T19:09:37.338Z,4.28
2022-10-07T19:12:26.744Z,4.05
2022-10-07T19:14:55.425Z,4.03
2022-10-07T19:17:24.195Z,3.45
2022-10-07T19:19:52.421Z,3.33
2022-10-07T19:22:20.773Z,3.58
2022-10-07T19:25:06.795Z,3.65
2022-10-07T19:27:35.084Z,3.90
2022-10-07T19:30:05.620Z,3.22
2022-10-07T19:32:34.912Z,3.60
2022-10-07T19:35:03.340Z,3.55
2022-10-07T19:37:31.551Z,3.45
2022-10-07T19:39:59.730Z,3.05
2022-10-07T19:42:28.691Z,3.63
2022-10-07T19:44:56.835Z,3.35
2022-10-07T19:47:26.597Z,3.60
2022-10-07T19:49:55.266Z,3.70
2022-10-07T19:52:23.998Z,3.75
2022-10-07T19:54:52.202Z,3.40
2022-10-07T19:57:21.574Z,3.33
2022-10-07T19:59:49.724Z,4.30
2022-10-07T20:02:20.074Z,4.30
2022-10-07T20:04:50.240Z,3.63
2022-10-07T20:07:19.141Z,3.85
2022-10-07T20:09:47.445Z,3.83
2022-10-07T20:12:16.456Z,3.40
2022-10-07T20:14:44.620Z,3.50
2022-10-07T20:17:13.009Z,3.40
2022-10-07T20:19:41.364Z,3.90
2022-10-07T20:22:20.337Z,3.47
2022-10-07T20:24:48.642Z,3.83
2022-10-07T20:27:17.974Z,3.65
2022-10-07T20:30:02.638Z,4.00
2022-10-07T20:32:34.337Z,3.70
2022-10-07T20:35:10.853Z,3.33
2022-10-07T20:37:40.615Z,3.35
2022-10-07T20:40:27.887Z,3.35
2022-10-07T20:42:57.312Z,3.35
2022-10-07T20:45:25.497Z,3.80
2022-10-07T20:47:56.217Z,3.30
2022-10-07T20:50:24.399Z,3.00
2022-10-07T20:52:54.321Z,2.88
2022-10-07T20:55:22.632Z,3.50
2022-10-07T20:57:51.399Z,2.60
2022-10-07T21:00:20.332Z,2.97
2022-10-07T21:02:48.776Z,3.38
2022-10-07T21:05:17.226Z,2.97
2022-10-07T21:07:45.543Z,2.60
2022-10-07T21:10:15.218Z,3.25
2022-10-07T21:12:44.576Z,3.22
2022-10-07T21:15:13.287Z,3.22
2022-10-07T21:17:44.592Z,3.10
2022-10-07T21:20:12.894Z,2.80
2022-10-07T21:22:41.240Z,3.08
2022-10-07T21:25:12.291Z,3.42
2022-10-07T21:27:42.569Z,3.33
2022-10-07T21:30:11.950Z,3.28
2022-10-07T21:32:40.480Z,3.17
2022-10-07T21:35:09.307Z,3.10
2022-10-07T21:37:37.501Z,3.70
2022-10-07T21:40:06.324Z,3.38
2022-10-07T21:42:34.616Z,3.92
2022-10-07T21:45:04.321Z,3.65
2022-10-07T21:47:32.908Z,2.90
2022-10-07T21:50:01.111Z,3.70
2022-10-07T21:52:29.518Z,3.08
2022-10-07T21:54:57.793Z,3.08
2022-10-07T21:57:25.991Z,3.05
2022-10-07T21:59:54.129Z,2.72
2022-10-07T22:02:23.891Z,3.03
2022-10-07T22:04:52.254Z,3.33
2022-10-07T22:07:38.040Z,3.33
2022-10-07T22:10:07.358Z,2.90
2022-10-07T22:12:35.535Z,3.17
2022-10-07T22:15:03.734Z,3.00
2022-10-07T22:17:34.809Z,2.67
2022-10-07T22:20:03.284Z,3.28
2022-10-07T22:22:32.158Z,3.20
2022-10-07T22:25:00.839Z,3.17
2022-10-07T22:27:28.950Z,2.80
2022-10-07T22:29:57.448Z,2.83
2022-10-07T22:32:25.720Z,3.00
2022-10-07T22:35:12.528Z,2.95
2022-10-07T22:37:40.834Z,2.70
2022-10-07T22:40:10.137Z,2.55
2022-10-07T22:42:38.666Z,2.97
2022-10-07T22:45:07.711Z,2.80
2022-10-07T22:47:37.520Z,3.42
2022-10-07T22:50:08.538Z,2.80
2022-10-07T22:52:36.965Z,3.25
2022-10-07T22:55:07.373Z,2.72
2022-10-07T22:57:37.004Z,3.13
2022-10-07T23:00:06.386Z,2.90
2022-10-07T23:02:34.733Z,3.00
2022-10-07T23:05:03.465Z,2.95
2022-10-07T23:07:33.412Z,3.28
2022-10-07T23:10:01.513Z,3.22
2022-10-07T23:12:30.253Z,2.60
2022-10-07T23:14:58.366Z,2.90
2022-10-07T23:17:26.833Z,3.13
2022-10-07T23:19:55.697Z,2.95
2022-10-07T23:22:23.893Z,3.60
2022-10-07T23:24:53.572Z,3.15
2022-10-07T23:27:22.278Z,3.20
2022-10-07T23:29:50.369Z,2.70
2022-10-07T23:32:19.993Z,2.75
2022-10-07T23:34:48.263Z,3.38
2022-10-07T23:37:16.621Z,2.90
2022-10-07T23:39:44.950Z,2.70
2022-10-07T23:42:14.899Z,2.75
2022-10-07T23:44:44.239Z,2.80
2022-10-07T23:47:12.607Z,2.83
2022-10-07T23:49:40.873Z,2.90
2022-10-07T23:52:09.119Z,3.17
2022-10-07T23:54:37.254Z,3.00
2022-10-07T23:57:05.665Z,2.88
2022-10-07T23:59:35.124Z,2.75
